Time;durP1;ratioP1;P1;durP2;ratioP2;P2;SDS_P1;SDS_P2;PMS_P1;PMS_P2;Temp;Humidity;BMP_temperature;BMP_pressure;BME280_temperature;BME280_humidity;BME280_pressure;Samples;Min_cycle;Max_cycle;Signal;HPM_P1;HPM_P2
2021/11/05 00:00:38;;;;;;;;;;;;;;;10.87;99.00;100122.19;5050919;28;848;-60
2021/11/05 00:03:05;;;;;;;;;;;;;;;10.88;99.36;100122.97;5052865;28;857;-60
2021/11/05 00:05:32;;;;;;;;;;;;;;;10.88;99.41;100117.44;5054886;28;834;-60
2021/11/05 00:07:58;;;;;;;;;;;;;;;10.88;99.12;100118.25;5054836;28;1936;-60
2021/11/05 00:10:25;;;;;;;;;;;;;;;10.90;99.56;100118.63;5054800;28;857;-59
2021/11/05 00:12:52;;;;;;;;;;;;;;;10.92;99.18;100116.25;5054686;28;827;-59
2021/11/05 00:15:19;;;;;;;;;;;;;;;10.95;99.52;100123.75;5037097;28;1271;-59
2021/11/05 00:17:45;;;;;;;;;;;;;;;11.00;99.56;100122.56;5054900;28;1156;-59
2021/11/05 00:20:12;;;;;;;;;;;;;;;11.01;99.73;100124.16;5054281;28;1397;-59
2021/11/05 00:22:39;;;;;;;;;;;;;;;11.03;99.50;100121.75;5054548;28;866;-59
2021/11/05 00:25:06;;;;;;;;;;;;;;;11.04;99.25;100120.59;5054652;28;807;-59
2021/11/05 00:27:34;;;;;;;;;;;;;;;11.04;99.47;100121.38;5054290;28;1921;-58
2021/11/05 00:30:00;;;;;;;;;;;;;;;11.07;99.68;100117.00;5054957;28;748;-58
2021/11/05 00:32:27;;;;;;;;;;;;;;;11.08;99.51;100118.59;5054477;28;878;-59
2021/11/05 00:34:53;;;;;;;;;;;;;;;11.16;99.79;100116.59;5054708;28;791;-58
2021/11/05 00:37:20;;;;;;;;;;;;;;;11.22;99.50;100126.06;5054034;28;885;-59
2021/11/05 00:39:46;;;;;;;;;;;;;;;11.29;99.75;100115.00;5053974;28;818;-58
2021/11/05 00:42:13;;;;;;;;;;;;;;;11.37;100.00;100115.75;5054197;28;802;-59
2021/11/05 00:44:39;;;;;;;;;;;;;;;11.45;99.58;100118.09;5054229;28;802;-58
2021/11/05 00:47:05;;;;;;;;;;;;;;;11.54;99.50;100114.13;5053794;28;1894;-59
2021/11/05 00:49:32;;;;;;;;;;;;;;;11.59;99.55;100122.03;5053892;28;834;-59
2021/11/05 00:51:59;;;;;;;;;;;;;;;11.61;99.50;100119.66;5053945;28;806;-59
2021/11/05 00:54:25;;;;;;;;;;;;;;;11.63;99.36;100118.03;5053687;28;811;-59
2021/11/05 00:56:52;;;;;;;;;;;;;;;11.71;99.84;100118.00;5053984;28;846;-58
2021/11/05 00:59:18;;;;;;;;;;;;;;;11.85;100.00;100115.16;5053577;28;890;-58
2021/11/05 01:01:44;;;;;;;;;;;;;;;11.97;100.00;100106.44;5053620;28;948;-59
2021/11/05 01:04:11;;;;;;;;;;;;;;;12.05;100.00;100105.22;5053679;28;786;-58
2021/11/05 01:06:38;;;;;;;;;;;;;;;12.10;99.91;100109.53;5053507;28;1893;-58
2021/11/05 01:09:04;;;;;;;;;;;;;;;12.02;99.21;100111.53;5053455;28;807;-59
2021/11/05 01:11:31;;;;;;;;;;;;;;;11.91;99.23;100104.50;5053483;28;849;-59
2021/11/05 01:13:57;;;;;;;;;;;;;;;11.87;99.47;100107.25;5052633;28;819;-58
2021/11/05 01:16:23;;;;;;;;;;;;;;;11.89;99.81;100109.66;5053329;28;862;-59
2021/11/05 01:18:50;;;;;;;;;;;;;;;11.96;100.00;100110.38;5053314;28;1198;-59
2021/11/05 01:21:16;;;;;;;;;;;;;;;12.01;100.00;100121.06;5053211;28;794;-59
2021/11/05 01:23:43;;;;;;;;;;;;;;;12.02;99.80;100119.84;5051962;28;842;-59
2021/11/05 01:26:10;;;;;;;;;;;;;;;11.97;99.33;100120.28;5053163;28;1030;-59
2021/11/05 01:28:36;;;;;;;;;;;;;;;11.93;99.44;100113.97;5052996;28;898;-59
2021/11/05 01:31:03;;;;;;;;;;;;;;;11.87;99.45;100121.09;5053048;28;807;-59
2021/11/05 01:33:30;;;;;;;;;;;;;;;11.82;99.73;100114.00;5052988;28;865;-58
2021/11/05 01:35:57;;;;;;;;;;;;;;;11.83;99.78;100104.50;5052978;28;799;-59
2021/11/05 01:38:24;;;;;;;;;;;;;;;11.84;99.65;100110.81;5052921;28;827;-58
2021/11/05 01:40:50;;;;;;;;;;;;;;;11.83;99.78;100107.25;5052909;28;807;-59
2021/11/05 01:43:16;;;;;;;;;;;;;;;11.85;99.59;100104.88;5052756;28;799;-59
2021/11/05 01:45:44;;;;;;;;;;;;;;;11.87;99.69;100104.47;5052983;28;794;-58
2021/11/05 01:48:11;;;;;;;;;;;;;;;11.88;99.34;100103.31;5051367;28;1889;-59
2021/11/05 01:50:37;;;;;;;;;;;;;;;11.91;99.88;100105.28;5052718;28;861;-58
2021/11/05 01:53:03;;;;;;;;;;;;;;;11.95;99.71;100099.69;5052655;28;805;-58
2021/11/05 01:55:30;;;;;;;;;;;;;;;11.92;99.40;100109.63;5052584;28;791;-59
2021/11/05 01:57:57;;;;;;;;;;;;;;;11.91;99.46;100104.50;5052481;28;814;-59
2021/11/05 02:00:25;;;;;;;;;;;;;;;11.91;99.48;100104.50;5052518;28;917;-59
2021/11/05 02:02:52;;;;;;;;;;;;;;;11.93;99.43;100107.66;5052774;28;799;-59
2021/11/05 02:05:19;;;;;;;;;;;;;;;11.96;99.72;100096.53;5052423;28;807;-59
2021/11/05 02:07:50;;;;;;;;;;;;;;;11.99;99.58;100097.69;5052328;28;1886;-58
2021/11/05 02:10:17;;;;;;;;;;;;;;;12.02;99.74;100096.91;5052537;28;878;-59
2021/11/05 02:12:44;;;;;;;;;;;;;;;12.06;100.00;100106.00;5052279;28;814;-58
2021/11/05 02:15:13;;;;;;;;;;;;;;;12.10;99.79;100097.63;5052153;28;832;-59
2021/11/05 02:17:41;;;;;;;;;;;;;;;12.11;99.57;100100.00;5052327;28;922;-59
2021/11/05 02:20:08;;;;;;;;;;;;;;;12.06;99.46;100103.22;5034287;28;1314;-58
2021/11/05 02:22:35;;;;;;;;;;;;;;;12.00;99.29;100108.38;5032223;28;889;-59
2021/11/05 02:25:02;;;;;;;;;;;;;;;11.94;99.36;100104.47;5032305;28;917;-59
2021/11/05 02:27:29;;;;;;;;;;;;;;;11.87;98.85;100104.47;5014202;28;1946;-59
2021/11/05 02:29:56;;;;;;;;;;;;;;;11.78;99.29;100106.91;5032047;28;807;-58
2021/11/05 02:32:22;;;;;;;;;;;;;;;11.74;99.19;100104.16;5032012;28;850;-59
2021/11/05 02:34:49;;;;;;;;;;;;;;;11.76;99.40;100104.53;5031996;28;851;-58
2021/11/05 02:37:20;;;;;;;;;;;;;;;11.78;99.53;100107.69;5031853;28;890;-59
2021/11/05 02:39:46;;;;;;;;;;;;;;;11.76;99.54;100107.31;5031861;28;854;-59
2021/11/05 02:42:13;;;;;;;;;;;;;;;11.74;99.16;100112.47;5031874;28;846;-59
2021/11/05 02:44:39;;;;;;;;;;;;;;;11.72;99.12;100111.28;5031780;28;823;-59
2021/11/05 02:47:26;;;;;;;;;;;;;;;11.67;99.37;100117.22;5031716;28;1957;-59
2021/11/05 02:49:53;;;;;;;;;;;;;;;11.62;99.17;100116.44;5014011;28;1018;-59
2021/11/05 02:52:20;;;;;;;;;;;;;;;11.59;99.40;100114.50;5031884;28;814;-59
2021/11/05 02:54:46;;;;;;;;;;;;;;;11.58;99.53;100115.69;5031693;28;855;-59
2021/11/05 02:57:13;;;;;;;;;;;;;;;11.58;99.20;100120.44;5031511;28;811;-59
2021/11/05 02:59:40;;;;;;;;;;;;;;;11.60;99.69;100118.06;5031616;28;791;-59
2021/11/05 03:02:07;;;;;;;;;;;;;;;11.59;99.46;100116.50;5031628;28;830;-59
2021/11/05 03:04:34;;;;;;;;;;;;;;;11.58;99.76;100121.22;5031570;28;854;-59
2021/11/05 03:07:01;;;;;;;;;;;;;;;11.57;99.69;100127.94;5031444;28;1953;-58
2021/11/05 03:09:32;;;;;;;;;;;;;;;11.56;99.86;100126.34;5031538;28;882;-58
2021/11/05 03:11:59;;;;;;;;;;;;;;;11.57;99.49;100130.72;5031776;28;862;-59
2021/11/05 03:14:26;;;;;;;;;;;;;;;11.57;99.88;100133.50;5031371;28;962;-58
2021/11/05 03:16:53;;;;;;;;;;;;;;;11.57;99.77;100133.50;5031406;28;823;-58
2021/11/05 03:19:19;;;;;;;;;;;;;;;11.58;99.66;100135.06;5013668;28;1315;-59
2021/11/05 03:21:46;;;;;;;;;;;;;;;11.61;100.00;100141.78;5031410;28;867;-58
2021/11/05 03:24:12;;;;;;;;;;;;;;;11.63;100.00;100133.88;5031635;28;859;-58
2021/11/05 03:26:39;;;;;;;;;;;;;;;11.64;99.92;100130.69;5031218;28;2054;-58
2021/11/05 03:29:05;;;;;;;;;;;;;;;11.69;100.00;100137.78;5031340;28;862;-58
2021/11/05 03:31:32;;;;;;;;;;;;;;;11.73;99.96;100135.78;5031237;28;827;-58
2021/11/05 03:34:00;;;;;;;;;;;;;;;11.78;100.00;100137.38;5013562;28;1287;-58
2021/11/05 03:36:27;;;;;;;;;;;;;;;11.81;100.00;100123.50;5031496;28;870;-58
2021/11/05 03:38:54;;;;;;;;;;;;;;;11.87;100.00;100123.88;5034433;28;900;-58
2021/11/05 03:41:20;;;;;;;;;;;;;;;11.91;100.00;100124.66;5035444;28;1029;-58
2021/11/05 03:43:47;;;;;;;;;;;;;;;11.93;100.00;100119.53;5035308;28;826;-58
2021/11/05 03:46:14;;;;;;;;;;;;;;;11.96;99.91;100117.91;5035082;28;872;-58
2021/11/05 03:48:41;;;;;;;;;;;;;;;11.96;99.96;100113.16;5035010;28;1882;-58
2021/11/05 03:51:08;;;;;;;;;;;;;;;11.95;100.00;100119.91;5035061;28;846;-58
2021/11/05 03:53:35;;;;;;;;;;;;;;;11.94;99.75;100115.53;5034893;28;874;-58
2021/11/05 03:56:03;;;;;;;;;;;;;;;11.93;100.00;100116.75;5034884;28;885;-58
2021/11/05 03:58:29;;;;;;;;;;;;;;;11.94;99.83;100112.78;5034850;28;873;-58
2021/11/05 04:00:55;;;;;;;;;;;;;;;11.97;100.00;100122.25;5034844;28;825;-58
2021/11/05 04:03:23;;;;;;;;;;;;;;;11.95;100.00;100114.38;5034798;28;870;-58
2021/11/05 04:05:48;;;;;;;;;;;;;;;11.93;99.44;100118.75;5034806;28;889;-58
2021/11/05 04:08:15;;;;;;;;;;;;;;;11.86;99.73;100122.28;5034601;28;1936;-58
2021/11/05 04:10:42;;;;;;;;;;;;;;;11.81;99.74;100111.63;5034687;28;806;-59
2021/11/05 04:13:08;;;;;;;;;;;;;;;11.76;99.72;100109.28;5034535;28;880;-58
2021/11/05 04:15:35;;;;;;;;;;;;;;;11.78;100.00;100116.00;5034575;28;811;-58
2021/11/05 04:18:02;;;;;;;;;;;;;;;11.81;100.00;100111.63;5034690;28;850;-59
2021/11/05 04:20:28;;;;;;;;;;;;;;;11.81;99.62;100114.41;5053436;28;1271;-58
2021/11/05 04:22:55;;;;;;;;;;;;;;;11.76;99.88;100103.75;5054378;28;826;-58
2021/11/05 04:25:21;;;;;;;;;;;;;;;11.75;99.68;100108.47;5054390;28;870;-58
2021/11/05 04:27:47;;;;;;;;;;;;;;;11.74;100.00;100101.38;5054209;28;1910;-58
2021/11/05 04:30:14;;;;;;;;;;;;;;;11.74;99.64;100106.13;5054253;28;901;-58
2021/11/05 04:32:42;;;;;;;;;;;;;;;11.74;100.00;100101.38;5054166;28;870;-58
2021/11/05 04:35:09;;;;;;;;;;;;;;;11.75;99.77;100100.19;5054203;28;845;-58
2021/11/05 04:37:36;;;;;;;;;;;;;;;11.78;99.70;100106.91;5054114;28;928;-58
2021/11/05 04:40:03;;;;;;;;;;;;;;;11.79;99.99;100100.94;5052754;28;898;-58
2021/11/05 04:42:30;;;;;;;;;;;;;;;11.82;100.00;100107.66;5054030;28;842;-58
2021/11/05 04:44:57;;;;;;;;;;;;;;;11.84;99.95;100108.84;5053976;28;854;-58
2021/11/05 04:47:22;;;;;;;;;;;;;;;11.90;99.88;100112.00;5053834;28;1898;-58
2021/11/05 04:49:49;;;;;;;;;;;;;;;11.96;99.96;100112.38;5052722;28;807;-58
2021/11/05 04:52:16;;;;;;;;;;;;;;;12.02;100.00;100111.53;5053835;28;865;-58
2021/11/05 04:54:42;;;;;;;;;;;;;;;12.10;100.00;100119.81;5053873;28;862;-58
2021/11/05 04:57:09;;;;;;;;;;;;;;;12.22;100.00;100125.66;5054108;28;893;-58
2021/11/05 04:59:37;;;;;;;;;;;;;;;12.30;100.00;100120.88;5053644;28;835;-58
2021/11/05 05:02:03;;;;;;;;;;;;;;;12.37;100.00;100115.25;5053618;28;816;-58
2021/11/05 05:04:29;;;;;;;;;;;;;;;12.43;100.00;100118.41;5053601;28;854;-58
2021/11/05 05:06:56;;;;;;;;;;;;;;;12.50;100.00;100112.00;5053752;28;1882;-58
2021/11/05 05:09:22;;;;;;;;;;;;;;;12.57;100.00;100131.38;5053472;28;795;-58
2021/11/05 05:19:34;;;;;;;;;;;;;;;12.65;99.75;100130.09;5075186;22;1825;-58
2021/11/05 05:22:00;;;;;;;;;;;;;;;12.66;100.00;100128.91;5053317;28;829;-58
2021/11/05 05:24:27;;;;;;;;;;;;;;;12.72;100.00;100129.28;5053220;28;826;-58
2021/11/05 05:26:53;;;;;;;;;;;;;;;12.74;100.00;100127.66;5053117;28;1918;-58
2021/11/05 05:29:19;;;;;;;;;;;;;;;12.76;100.00;100133.59;5053423;28;829;-59
2021/11/05 05:31:46;;;;;;;;;;;;;;;12.77;99.96;100132.38;5053180;28;810;-58
2021/11/05 05:34:13;;;;;;;;;;;;;;;12.80;100.00;100141.88;5053064;28;853;-58
2021/11/05 05:36:39;;;;;;;;;;;;;;;12.81;100.00;100141.47;5053024;28;862;-58
2021/11/05 05:39:12;;;;;;;;;;;;;;;12.82;100.00;100143.06;5053141;28;846;-58
2021/11/05 05:41:39;;;;;;;;;;;;;;;12.83;100.00;100146.59;5053284;28;810;-58
2021/11/05 05:44:06;;;;;;;;;;;;;;;12.84;99.88;100154.53;5053220;28;853;-58
2021/11/05 05:46:32;;;;;;;;;;;;;;;12.87;100.00;100150.16;5052898;28;1898;-58
2021/11/05 05:48:58;;;;;;;;;;;;;;;12.90;99.92;100157.63;5034825;28;1208;-58
2021/11/05 05:51:24;;;;;;;;;;;;;;;12.90;100.00;100154.09;5052652;28;849;-58
2021/11/05 05:53:50;;;;;;;;;;;;;;;12.86;99.75;100159.66;5052922;28;917;-58
2021/11/05 05:56:16;;;;;;;;;;;;;;;12.86;99.94;100157.66;5052620;28;834;-58
2021/11/05 05:58:43;;;;;;;;;;;;;;;12.85;99.81;100155.31;5052598;28;862;-58
2021/11/05 06:01:10;;;;;;;;;;;;;;;12.86;99.89;100160.44;5052223;28;877;-59
2021/11/05 06:03:37;;;;;;;;;;;;;;;12.85;99.94;100161.66;5052460;28;847;-58
2021/11/05 06:06:03;;;;;;;;;;;;;;;12.85;99.92;100169.97;5052437;28;854;-58
2021/11/05 06:08:29;;;;;;;;;;;;;;;12.86;100.00;100168.75;5052338;28;1943;-58
2021/11/05 06:10:57;;;;;;;;;;;;;;;12.91;100.00;100175.06;5052390;28;850;-58
2021/11/05 06:13:24;;;;;;;;;;;;;;;12.90;99.78;100173.50;5052279;28;893;-58
2021/11/05 06:15:50;;;;;;;;;;;;;;;12.94;100.00;100172.28;5052268;28;798;-58
2021/11/05 06:18:17;;;;;;;;;;;;;;;12.93;100.00;100156.84;5052142;28;1209;-58
2021/11/05 06:20:43;;;;;;;;;;;;;;;12.98;100.00;100175.03;5052200;28;794;-58
2021/11/05 06:23:10;;;;;;;;;;;;;;;13.00;99.79;100175.41;5052128;28;865;-58
2021/11/05 06:25:37;;;;;;;;;;;;;;;13.02;99.92;100171.00;5052085;28;814;-58
2021/11/05 06:28:03;;;;;;;;;;;;;;;13.08;100.00;100177.69;5052066;28;1963;-58
2021/11/05 06:30:30;;;;;;;;;;;;;;;13.13;99.77;100172.91;5052021;28;802;-58
2021/11/05 06:32:59;;;;;;;;;;;;;;;13.22;99.85;100171.22;5052199;28;877;-58
2021/11/05 06:35:28;;;;;;;;;;;;;;;13.26;99.59;100174.75;5051912;28;822;-58
2021/11/05 06:37:55;;;;;;;;;;;;;;;13.32;99.57;100175.13;5051925;28;834;-58
2021/11/05 06:40:21;;;;;;;;;;;;;;;13.38;99.24;100181.03;5051782;28;814;-58
2021/11/05 06:42:48;;;;;;;;;;;;;;;13.46;99.32;100188.06;5051967;28;889;-58
2021/11/05 06:45:13;;;;;;;;;;;;;;;13.47;99.04;100187.66;5051779;28;834;-59
2021/11/05 06:47:40;;;;;;;;;;;;;;;13.51;98.98;100184.84;5051559;28;1941;-59
2021/11/05 06:50:07;;;;;;;;;;;;;;;13.62;99.19;100181.94;5051723;28;841;-58
2021/11/05 06:52:34;;;;;;;;;;;;;;;13.66;98.56;100183.47;5051712;28;853;-58
2021/11/05 06:55:01;;;;;;;;;;;;;;;13.74;98.58;100180.59;5051713;28;826;-58
2021/11/05 06:57:28;;;;;;;;;;;;;;;13.90;98.55;100175.25;5051615;28;807;-59
2021/11/05 06:59:56;;;;;;;;;;;;;;;14.02;98.13;100180.25;5051572;28;826;-59
2021/11/05 07:02:23;;;;;;;;;;;;;;;14.12;97.75;100188.88;5051768;28;849;-59
2021/11/05 07:04:49;;;;;;;;;;;;;;;14.14;96.90;100180.91;5033665;28;1223;-59
2021/11/05 07:07:16;;;;;;;;;;;;;;;14.11;96.60;100181.75;5051392;28;1878;-59
2021/11/05 07:09:42;;;;;;;;;;;;;;;14.13;96.59;100185.69;5051484;28;841;-58
2021/11/05 07:12:09;;;;;;;;;;;;;;;14.23;96.49;100193.09;5050811;28;889;-59
2021/11/05 07:14:35;;;;;;;;;;;;;;;14.23;95.92;100183.94;5051495;28;861;-59
2021/11/05 07:17:02;;;;;;;;;;;;;;;14.16;95.66;100184.06;5051227;28;938;-58
2021/11/05 07:19:29;;;;;;;;;;;;;;;14.21;95.89;100180.78;5051271;28;1313;-59
2021/11/05 07:22:01;;;;;;;;;;;;;;;14.37;95.35;100186.53;5051409;28;881;-59
2021/11/05 07:24:29;;;;;;;;;;;;;;;14.54;94.68;100178.34;5051494;28;845;-59
2021/11/05 07:26:56;;;;;;;;;;;;;;;14.77;93.48;100172.84;5051271;28;1964;-59
2021/11/05 07:29:25;;;;;;;;;;;;;;;14.82;92.81;100168.78;5051513;28;854;-59
2021/11/05 07:32:01;;;;;;;;;;;;;;;14.88;91.88;100162.31;5051283;28;866;-59
2021/11/05 07:34:30;;;;;;;;;;;;;;;14.98;91.51;100163.38;5051241;28;837;-59
2021/11/05 07:36:57;;;;;;;;;;;;;;;15.09;90.77;100163.97;5049900;28;921;-59
2021/11/05 07:39:23;;;;;;;;;;;;;;;14.97;90.26;100161.78;5051211;28;802;-59
2021/11/05 07:41:50;;;;;;;;;;;;;;;14.93;89.92;100154.69;5051221;28;803;-59
2021/11/05 07:44:16;;;;;;;;;;;;;;;14.81;88.93;100156.88;5049867;28;1184;-59
2021/11/05 07:46:45;;;;;;;;;;;;;;;14.73;89.63;100158.22;5050952;28;1952;-59
2021/11/05 07:49:12;;;;;;;;;;;;;;;14.78;89.68;100166.06;5051128;28;846;-59
2021/11/05 07:51:39;;;;;;;;;;;;;;;14.63;88.58;100162.72;5051022;28;858;-59
2021/11/05 07:54:07;;;;;;;;;;;;;;;14.68;89.67;100176.19;5051092;28;819;-59
2021/11/05 07:56:36;;;;;;;;;;;;;;;14.83;88.60;100170.34;5050995;28;822;-59
2021/11/05 07:59:03;;;;;;;;;;;;;;;14.74;88.93;100167.34;5051047;28;873;-59
2021/11/05 08:01:30;;;;;;;;;;;;;;;14.62;88.22;100171.50;5050972;28;814;-59
2021/11/05 08:03:56;;;;;;;;;;;;;;;14.56;88.86;100181.53;5050961;28;806;-59
2021/11/05 08:06:23;;;;;;;;;;;;;;;14.58;88.18;100181.91;5050923;28;798;-59
2021/11/05 08:08:50;;;;;;;;;;;;;;;14.56;88.45;100185.09;5050835;28;1882;-59
2021/11/05 08:11:17;;;;;;;;;;;;;;;14.81;88.06;100176.38;5050941;28;889;-59
2021/11/05 08:13:43;;;;;;;;;;;;;;;14.94;87.96;100173.78;5050857;28;834;-59
2021/11/05 08:16:10;;;;;;;;;;;;;;;14.96;87.40;100174.13;5050784;28;806;-59
2021/11/05 08:18:37;;;;;;;;;;;;;;;14.93;86.67;100174.97;5050669;28;1321;-60
2021/11/05 08:21:03;;;;;;;;;;;;;;;14.86;86.75;100180.66;5050812;28;873;-59
2021/11/05 08:23:30;;;;;;;;;;;;;;;14.69;86.83;100186.06;5051656;28;818;-60
2021/11/05 08:25:58;;;;;;;;;;;;;;;14.96;87.85;100187.28;5054312;28;862;-59
2021/11/05 08:28:24;;;;;;;;;;;;;;;14.79;86.41;100181.56;5054241;28;1914;-59
2021/11/05 08:30:51;;;;;;;;;;;;;;;14.59;87.49;100175.91;5054262;28;878;-59
2021/11/05 08:33:18;;;;;;;;;;;;;;;14.57;87.90;100171.97;5054286;28;826;-59
2021/11/05 08:35:51;;;;;;;;;;;;;;;14.41;87.75;100175.38;5054134;28;857;-59
2021/11/05 08:38:19;;;;;;;;;;;;;;;14.27;88.56;100174.38;5052863;28;1130;-59
2021/11/05 08:40:47;;;;;;;;;;;;;;;14.21;88.05;100180.78;5054038;28;869;-59
2021/11/05 08:43:15;;;;;;;;;;;;;;;14.39;88.28;100175.78;5054061;28;897;-59
2021/11/05 08:45:42;;;;;;;;;;;;;;;14.68;87.61;100172.59;5053873;28;823;-59
2021/11/05 08:48:09;;;;;;;;;;;;;;;14.90;86.99;100173.03;5053877;28;1909;-60
2021/11/05 08:50:36;;;;;;;;;;;;;;;15.09;86.68;100171.53;5053933;28;810;-60
2021/11/05 08:53:03;;;;;;;;;;;;;;;15.26;85.84;100175.22;5053866;28;814;-60
2021/11/05 08:55:30;;;;;;;;;;;;;;;15.26;86.18;100167.63;5053772;28;838;-60
2021/11/05 08:57:56;;;;;;;;;;;;;;;15.34;86.07;100173.06;5053942;28;822;-60
2021/11/05 09:00:24;;;;;;;;;;;;;;;15.55;85.85;100169.88;5052494;28;802;-60
2021/11/05 09:02:51;;;;;;;;;;;;;;;15.57;85.04;100175.81;5053654;28;826;-60
2021/11/05 09:05:18;;;;;;;;;;;;;;;15.67;84.58;100172.03;5053622;28;877;-60
2021/11/05 09:07:45;;;;;;;;;;;;;;;15.77;84.74;100175.03;5053504;28;1882;-60
2021/11/05 09:10:12;;;;;;;;;;;;;;;16.09;83.52;100161.22;5053538;28;817;-60
2021/11/05 09:12:39;;;;;;;;;;;;;;;16.29;83.09;100163.19;5053723;28;845;-60
2021/11/05 09:15:06;;;;;;;;;;;;;;;16.43;83.16;100164.84;5053618;28;854;-60
2021/11/05 09:17:33;;;;;;;;;;;;;;;16.45;82.34;100163.22;5053519;28;978;-60
2021/11/05 09:19:58;;;;;;;;;;;;;;;16.70;82.83;100150.66;5053214;28;1332;-60
2021/11/05 09:22:25;;;;;;;;;;;;;;;17.11;81.04;100158.44;5053332;28;858;-60
2021/11/05 09:24:51;;;;;;;;;;;;;;;17.64;78.63;100138.63;5053412;28;878;-60
2021/11/05 09:27:18;;;;;;;;;;;;;;;17.71;78.84;100149.63;5051907;28;1967;-60
2021/11/05 09:29:44;;;;;;;;;;;;;;;17.63;78.24;100148.25;5053204;28;830;-60
2021/11/05 09:32:11;;;;;;;;;;;;;;;17.85;77.83;100151.22;5053089;28;770;-60
2021/11/05 09:34:37;;;;;;;;;;;;;;;18.25;77.34;100145.25;5052884;28;799;-60
2021/11/05 09:37:05;;;;;;;;;;;;;;;18.10;75.67;100144.13;5052661;28;802;-60
2021/11/05 09:39:31;;;;;;;;;;;;;;;17.20;77.09;100141.06;5053005;28;799;-60
2021/11/05 09:41:59;;;;;;;;;;;;;;;16.63;79.41;100146.03;5052898;28;857;-60
2021/11/05 09:44:26;;;;;;;;;;;;;;;16.38;79.95;100146.63;5052825;28;838;-60
2021/11/05 09:46:53;;;;;;;;;;;;;;;16.64;80.69;100141.25;5052740;28;1890;-59
2021/11/05 09:49:21;;;;;;;;;;;;;;;16.92;79.91;100153.75;5052692;28;1109;-60
2021/11/05 09:51:48;;;;;;;;;;;;;;;17.01;79.05;100148.31;5052901;28;866;-60
2021/11/05 09:54:17;;;;;;;;;;;;;;;17.21;78.38;100147.41;5034812;28;1308;-60
2021/11/05 09:56:45;;;;;;;;;;;;;;;16.83;78.57;100153.56;5052634;28;889;-60
2021/11/05 09:59:12;;;;;;;;;;;;;;;16.50;79.55;100142.38;5051278;28;1167;-59
2021/11/05 10:01:41;;;;;;;;;;;;;;;16.33;80.35;100150.72;5052550;28;852;-60
2021/11/05 10:04:08;;;;;;;;;;;;;;;16.36;80.71;100137.13;5053078;28;829;-60
2021/11/05 10:06:35;;;;;;;;;;;;;;;16.58;80.47;100145.78;5052959;28;1914;-59
2021/11/05 10:09:03;;;;;;;;;;;;;;;16.73;80.03;100139.41;5052399;28;1228;-60
2021/11/05 10:11:32;;;;;;;;;;;;;;;16.85;79.67;100128.78;5053132;28;762;-60
2021/11/05 10:14:01;;;;;;;;;;;;;;;16.87;79.79;100132.72;5052197;28;869;-60
2021/11/05 10:16:28;;;;;;;;;;;;;;;16.84;79.60;100130.03;5052274;28;795;-60
2021/11/05 10:19:05;;;;;;;;;;;;;;;17.22;79.61;100124.66;5052125;28;1229;-60
2021/11/05 10:21:40;;;;;;;;;;;;;;;17.52;78.32;100125.41;5051189;28;1453;-60
2021/11/05 10:24:08;;;;;;;;;;;;;;;17.60;77.38;100125.97;5052391;28;858;-60
2021/11/05 10:26:35;;;;;;;;;;;;;;;18.01;77.42;100113.22;5051940;28;1914;-60
2021/11/05 10:29:06;;;;;;;;;;;;;;;18.48;75.21;100102.16;5052096;28;850;-60
2021/11/05 10:31:33;;;;;;;;;;;;;;;17.99;75.17;100107.28;5052035;28;885;-60
2021/11/05 10:34:00;;;;;;;;;;;;;;;17.51;76.56;100107.06;5052000;28;842;-60
2021/11/05 10:36:27;;;;;;;;;;;;;;;17.48;77.80;100099.59;5051896;28;861;-60
2021/11/05 10:38:59;;;;;;;;;;;;;;;17.62;77.19;100104.75;5051901;28;889;-60
2021/11/05 10:41:27;;;;;;;;;;;;;;;18.02;76.30;100096.00;5051814;28;807;-60
2021/11/05 10:43:55;;;;;;;;;;;;;;;18.27;75.83;100089.63;5051822;28;877;-60
2021/11/05 10:46:32;;;;;;;;;;;;;;;18.50;75.71;100084.91;5050127;28;1420;-60
2021/11/05 10:49:00;;;;;;;;;;;;;;;18.89;74.48;100088.44;5051376;28;850;-60
2021/11/05 10:51:27;;;;;;;;;;;;;;;18.96;73.92;100083.34;5051743;28;1011;-60
2021/11/05 10:53:55;;;;;;;;;;;;;;;19.03;73.28;100073.13;5051670;28;862;-60
2021/11/05 10:56:28;;;;;;;;;;;;;;;19.15;72.75;100058.28;5051705;28;821;-60
2021/11/05 10:58:56;;;;;;;;;;;;;;;19.24;73.11;100065.97;5033710;28;1212;-59
2021/11/05 11:01:24;;;;;;;;;;;;;;;19.38;72.35;100060.63;5051807;28;873;-60
2021/11/05 11:03:51;;;;;;;;;;;;;;;19.46;72.10;100054.75;5051518;28;818;-60
2021/11/05 11:06:27;;;;;;;;;;;;;;;19.42;71.57;100054.91;5051864;28;913;-60
2021/11/05 11:08:55;;;;;;;;;;;;;;;19.57;71.17;100055.94;5052214;28;1881;-60
2021/11/05 11:11:29;;;;;;;;;;;;;;;19.69;70.24;100043.03;5051653;28;798;-60
2021/11/05 11:13:59;;;;;;;;;;;;;;;19.75;69.85;100040.47;5051448;28;849;-60
2021/11/05 11:16:33;;;;;;;;;;;;;;;19.86;69.60;100042.84;5051471;28;810;-60
2021/11/05 11:19:04;;;;;;;;;;;;;;;20.09;69.03;100038.75;5051375;28;1237;-60
2021/11/05 11:21:38;;;;;;;;;;;;;;;20.11;68.92;100036.25;5051492;28;869;-59
2021/11/05 11:24:06;;;;;;;;;;;;;;;20.19;69.48;100034.72;5051454;28;802;-60
2021/11/05 11:26:34;;;;;;;;;;;;;;;20.15;68.01;100040.47;5051289;28;830;-60
2021/11/05 11:29:02;;;;;;;;;;;;;;;20.19;67.84;100035.50;5051297;28;905;-60
2021/11/05 11:31:29;;;;;;;;;;;;;;;20.29;67.61;100027.91;5050008;28;807;-59
2021/11/05 11:34:01;;;;;;;;;;;;;;;20.40;67.65;100024.66;5051444;28;842;-60
2021/11/05 11:36:29;;;;;;;;;;;;;;;20.56;66.97;100026.38;5051499;28;885;-60
2021/11/05 11:38:57;;;;;;;;;;;;;;;20.65;66.25;100020.00;5051167;28;850;-60
2021/11/05 11:41:25;;;;;;;;;;;;;;;20.74;66.48;100020.00;5051096;28;786;-60
2021/11/05 11:43:54;;;;;;;;;;;;;;;20.75;66.31;100013.94;5051145;28;802;-60
2021/11/05 11:46:21;;;;;;;;;;;;;;;20.84;66.09;100018.75;5051363;28;861;-59
2021/11/05 11:48:49;;;;;;;;;;;;;;;21.19;66.84;100007.19;5033351;28;1894;-60
2021/11/05 11:51:20;;;;;;;;;;;;;;;21.40;65.71;100006.22;5051235;28;806;-59
2021/11/05 11:53:47;;;;;;;;;;;;;;;21.51;64.60;100014.19;5051063;28;842;-60
2021/11/05 11:56:27;;;;;;;;;;;;;;;21.71;64.46;100005.19;5051105;28;853;-59
2021/11/05 11:58:55;;;;;;;;;;;;;;;21.70;63.06;100002.84;5052463;28;819;-60
2021/11/05 12:01:23;;;;;;;;;;;;;;;21.70;63.32;100006.47;5053597;28;850;-60
2021/11/05 12:03:57;;;;;;;;;;;;;;;21.97;63.22;100002.72;5037226;28;1208;-60
2021/11/05 12:06:24;;;;;;;;;;;;;;;22.10;62.59;100001.72;5054690;28;827;-60
2021/11/05 12:08:51;;;;;;;;;;;;;;;22.24;61.21;100003.09;5054687;28;1953;-59
2021/11/05 12:11:17;;;;;;;;;;;;;;;22.02;60.97;99996.47;5054583;28;861;-59
2021/11/05 12:13:52;;;;;;;;;;;;;;;22.07;61.08;99995.03;5054673;28;830;-60
2021/11/05 12:16:30;;;;;;;;;;;;;;;22.33;60.88;99998.19;5054488;28;861;-59
2021/11/05 12:19:00;;;;;;;;;;;;;;;22.41;59.68;99998.59;5054472;28;1333;-60
2021/11/05 12:21:29;;;;;;;;;;;;;;;22.56;59.43;99993.03;5054510;28;810;-60
2021/11/05 12:24:20;;;;;;;;;;;;;;;22.78;57.73;99992.69;5054365;28;889;-60
2021/11/05 12:26:51;;;;;;;;;;;;;;;22.77;56.16;99988.31;5054373;28;1938;-59
2021/11/05 12:29:30;;;;;;;;;;;;;;;22.66;55.43;99990.91;5054301;28;839;-60
2021/11/05 12:31:57;;;;;;;;;;;;;;;22.83;55.62;99995.63;5054284;28;802;-60
2021/11/05 12:34:25;;;;;;;;;;;;;;;23.12;56.06;99993.34;5054222;28;811;-60
2021/11/05 12:36:53;;;;;;;;;;;;;;;23.15;55.38;99987.53;5054239;28;850;-60
2021/11/05 12:39:36;;;;;;;;;;;;;;;23.18;55.07;99992.19;5054102;28;866;-60
2021/11/05 12:42:07;;;;;;;;;;;;;;;23.19;54.45;99993.75;5054048;28;881;-60
2021/11/05 12:44:54;;;;;;;;;;;;;;;23.08;53.95;99984.31;5054068;28;806;-60
2021/11/05 12:47:39;;;;;;;;;;;;;;;22.94;54.70;99995.06;5053888;28;1890;-60
2021/11/05 12:50:05;;;;;;;;;;;;;;;23.16;54.25;99988.28;5054059;28;850;-60
2021/11/05 12:52:32;;;;;;;;;;;;;;;23.18;53.32;99991.41;5053970;28;797;-59
2021/11/05 12:54:59;;;;;;;;;;;;;;;23.21;53.52;99979.94;5053859;28;802;-60
2021/11/05 12:57:26;;;;;;;;;;;;;;;23.27;53.89;99985.66;5053891;28;830;-60
2021/11/05 12:59:53;;;;;;;;;;;;;;;23.02;53.40;99981.38;5053770;28;846;-60
2021/11/05 13:02:23;;;;;;;;;;;;;;;22.85;53.73;99986.66;5053751;28;846;-60